Airfield :
LOGIN :

Register | Disclaimer

   EN    FR    IT 

 










Legend :    VFR   Marginal VFR   IFR   Intensive IFR   Very Intensive IFR
Visi :
Ceiling :
>= 8 km
>= 3000ft
5 to 8 km
1000 to 3000 ft
1500m to 5 km
500 to 1000 ft
800 to 1500m
200 to 500 ft
< 800m
< 200 ft
Symbols :   Thunderstorms  Fog  Heavy snow  Heavy precipitations  Wind > 20 kt
SIGMETs :     Misc.  Thunderstorms  Icing  Turbulence  Mountain Waves  Volcanic Ashes






- Airport Elevation : 1363 ft


ETIC - Grafenwohr Army Air Field

CURRENT METAR :
  • 021556Z AUTO 28007KT 9999 CLR 12/M08 A2977 RMK AO2 SLP101 T01241076 $

EXPIRED METARs :
  • 021456Z AUTO 25005KT 9999 CLR 13/M08 A2978 RMK AO2 SLP102 T01291083 57022 $
  • 021356Z AUTO 22008KT 9999 CLR 13/M07 A2980 RMK AO2 SLP107 T01251070 $

TAF TAF ETIC
Valid from the 02 at 02:00 until the 03 at 08:00 UTC


020200Z 0202/0308 VRB06KT 9999 SKC QNH2989INS
BECMG 0220/0221 VRB06KT 9999 SCT030 QNH2983INS
BECMG 0302/0303 26009KT 9999 SCT015 BKN030 QNH2987INS
TEMPO 0303/0308 27012G20KT 8000 -SHRA BKN015 TX10/0213Z TNM07/0204Z



MET'MAP, your aeronautical weather chart ! - Copyright ORBIFLY December 2007 - Disclaimer

ORBIFLY MET'MAP TEAM :

Programming & Development : Alexandra Zaïnal
Concept & original design : Baudouin d'Aumeries
Assistance for programming : Marc-Olivier Méhu
Technical & hardware support : Manuel Goepfert

Contact : metmap@orbifly.com




SOURCES & CREDITS :

   NOAA